Time;durP1;ratioP1;P1;durP2;ratioP2;P2;SDS_P1;SDS_P2;PMS_P1;PMS_P2;Temp;Humidity;BMP_temperature;BMP_pressure;BME280_temperature;BME280_humidity;BME280_pressure;Samples;Min_cycle;Max_cycle;Signal;HPM_P1;HPM_P2
2022/01/22 00:00:45;;;;;;;2.22;1.30;;;;;;;20.80;23.44;100594.13;5110769;28;20599;-58
2022/01/22 00:03:11;;;;;;;1.83;1.13;;;;;;;20.81;23.45;100594.94;5091993;28;20043;-57
2022/01/22 00:05:37;;;;;;;2.35;1.42;;;;;;;20.79;23.32;100600.84;5089420;28;20083;-58
2022/01/22 00:08:03;;;;;;;2.80;1.60;;;;;;;20.79;23.36;100597.28;5089932;28;20408;-58
2022/01/22 00:10:28;;;;;;;2.05;1.30;;;;;;;20.77;23.53;100605.94;5089861;28;20511;-58
2022/01/22 00:15:27;;;;;;;2.17;1.17;;;;;;;20.77;23.31;100600.38;5089329;28;20078;-58
2022/01/22 00:17:53;;;;;;;2.08;1.25;;;;;;;20.76;23.46;100586.81;5090027;28;20067;-58
2022/01/22 00:20:22;;;;;;;2.22;1.25;;;;;;;20.74;23.48;100587.16;5089965;28;20089;-58
2022/01/22 00:22:48;;;;;;;1.92;1.25;;;;;;;20.74;23.32;100587.16;5089550;28;20127;-58
2022/01/22 00:25:16;;;;;;;2.22;1.30;;;;;;;20.71;23.39;100590.63;5089355;28;20059;-58
2022/01/22 00:27:44;;;;;;;2.03;1.30;;;;;;;20.73;23.49;100590.31;5089891;28;20094;-58
2022/01/22 00:30:12;;;;;;;2.58;1.27;;;;;;;20.72;23.43;100595.06;5089360;28;20507;-58
2022/01/22 00:32:38;;;;;;;2.00;1.20;;;;;;;20.71;23.50;100590.63;5089659;28;20063;-58
2022/01/22 00:35:05;;;;;;;2.55;1.20;;;;;;;20.71;23.50;100589.81;5089487;28;20036;-58
2022/01/22 00:37:31;;;;;;;2.00;1.30;;;;;;;20.70;23.35;100586.22;5088503;28;20390;-58
2022/01/22 00:39:56;;;;;;;2.13;1.38;;;;;;;20.70;23.50;100593.75;5089523;28;20508;-58
2022/01/22 00:42:23;;;;;;;2.35;1.40;;;;;;;20.70;23.54;100594.56;5089601;28;20056;-57
2022/01/22 00:44:51;;;;;;;2.30;1.50;;;;;;;20.67;23.57;100592.50;5089111;28;20082;-59
2022/01/22 00:47:17;;;;;;;2.33;1.50;;;;;;;20.69;23.49;100600.47;5089546;28;20044;-58
2022/01/22 00:49:43;;;;;;;2.47;1.35;;;;;;;20.68;23.49;100601.66;5089299;28;20089;-58
2022/01/22 00:52:09;;;;;;;2.50;1.40;;;;;;;20.67;23.36;100589.72;5089024;28;20052;-58
2022/01/22 00:54:34;;;;;;;2.17;1.25;;;;;;;20.67;23.74;100602.81;5089796;28;20040;-58
2022/01/22 00:56:59;;;;;;;2.00;1.25;;;;;;;20.64;23.49;100600.69;5089374;28;20040;-58
2022/01/22 00:59:25;;;;;;;2.25;1.33;;;;;;;20.66;23.43;100602.00;5089029;28;20070;-58
2022/01/22 01:01:50;;;;;;;2.35;1.27;;;;;;;20.65;23.54;100605.13;5089520;28;20071;-58
2022/01/22 01:04:16;;;;;;;2.22;1.30;;;;;;;20.65;23.64;100614.28;5089372;28;20412;-58
2022/01/22 01:06:41;;;;;;;2.35;1.20;;;;;;;20.65;23.53;100617.06;5088896;28;20060;-58
2022/01/22 01:09:09;;;;;;;2.05;1.17;;;;;;;20.62;23.41;100609.38;5089370;28;20075;-59
2022/01/22 01:11:40;;;;;;;2.33;1.38;;;;;;;20.64;23.50;100618.19;5089306;28;20442;-60
2022/01/22 01:14:08;;;;;;;2.08;1.30;;;;;;;20.63;23.48;100615.75;5088813;28;20040;-60
2022/01/22 01:32:54;;;;;;;2.15;1.30;;;;;;;20.69;23.43;100619.94;5089248;28;20050;-60
2022/01/22 01:35:21;;;;;;;2.80;1.20;;;;;;;20.69;23.51;100625.50;5088427;28;20040;-59
2022/01/22 01:37:47;;;;;;;2.22;1.30;;;;;;;20.68;23.62;100623.88;5088854;28;20051;-58
2022/01/22 01:40:16;;;;;;;2.30;1.27;;;;;;;20.71;23.29;100625.97;5103773;28;20052;-58
2022/01/22 01:43:04;;;;;;;2.45;1.33;;;;;;;20.75;23.43;100624.13;5106656;28;20462;-58
2022/01/22 01:45:31;;;;;;;2.28;1.38;;;;;;;20.79;23.32;100614.75;5088693;28;20500;-58
2022/01/22 01:48:01;;;;;;;2.10;1.27;;;;;;;20.84;23.62;100622.03;5088604;28;20044;-59
2022/01/22 01:50:26;;;;;;;1.88;1.20;;;;;;;20.85;23.64;100618.91;5088479;28;20044;-60
2022/01/22 01:53:08;;;;;;;2.10;1.15;;;;;;;20.85;23.42;100615.31;5088947;28;20481;-61
2022/01/22 01:55:47;;;;;;;2.05;1.27;;;;;;;20.83;23.55;100617.66;5088732;28;20080;-59
2022/01/22 01:58:13;;;;;;;2.08;1.25;;;;;;;20.80;23.39;100616.38;5088088;28;20072;-60
2022/01/22 02:00:38;;;;;;;2.28;1.20;;;;;;;20.78;23.33;100615.91;5097155;28;20589;-59
2022/01/22 02:03:04;;;;;;;2.05;1.25;;;;;;;20.78;23.42;100615.91;5108393;28;20052;-59
2022/01/22 02:05:31;;;;;;;1.95;1.17;;;;;;;20.78;23.25;100618.66;5108571;28;20073;-60
2022/01/22 02:07:57;;;;;;;1.90;1.20;;;;;;;20.77;23.46;100616.25;5108794;28;20531;-56
2022/01/22 02:10:27;;;;;;;2.15;1.20;;;;;;;20.74;23.39;100606.63;5108709;28;20075;-57
2022/01/22 02:23:38;;;;;;;2.58;1.40;;;;;;;20.70;23.56;100614.03;5107952;28;20553;-59
2022/01/22 02:26:08;;;;;;;2.15;1.10;;;;;;;20.68;23.43;100604.41;5108754;28;20039;-58
2022/01/22 02:28:34;;;;;;;2.05;1.25;;;;;;;20.68;23.58;100608.00;5107961;28;20457;-58
2022/01/22 02:31:16;;;;;;;1.92;1.20;;;;;;;20.66;23.37;100601.19;5106685;28;20073;-58
2022/01/22 02:34:08;;;;;;;2.10;1.10;;;;;;;20.66;23.43;100613.13;5108499;28;20059;-58
2022/01/22 02:37:19;;;;;;;2.25;1.38;;;;;;;20.66;23.49;100609.53;5108751;28;20040;-58
2022/01/22 02:39:37;;;;;;;2.08;1.20;;;;;;;20.65;23.50;100605.94;5091890;28;20515;-58
2022/01/22 02:42:03;;;;;;;2.17;1.27;;;;;;;20.64;23.36;100601.50;5108325;28;20069;-57
2022/01/22 02:44:43;;;;;;;2.30;1.30;;;;;;;20.69;23.41;100603.25;5106337;28;20044;-58
2022/01/22 02:47:09;;;;;;;2.30;1.50;;;;;;;20.81;23.32;100600.50;5107366;28;20419;-58
2022/01/22 02:49:35;;;;;;;2.30;1.30;;;;;;;20.91;23.22;100605.59;5105820;28;20040;-57
2022/01/22 02:52:07;;;;;;;2.35;1.40;;;;;;;21.02;23.29;100608.75;5108330;28;20043;-57
2022/01/22 02:54:33;;;;;;;2.70;1.63;;;;;;;21.10;23.11;100602.25;5108533;28;20054;-58
2022/01/22 02:56:58;;;;;;;2.30;1.40;;;;;;;21.18;23.16;100604.09;5107939;28;20051;-57
2022/01/22 02:59:24;;;;;;;2.22;1.45;;;;;;;21.18;22.88;100609.66;5104944;28;20051;-57
2022/01/22 03:01:50;;;;;;;2.55;1.50;;;;;;;21.17;23.18;100608.88;5111980;28;20135;-58
2022/01/22 03:04:16;;;;;;;2.97;1.70;;;;;;;21.20;23.07;100606.53;5111348;28;20166;-58
2022/01/22 03:06:42;;;;;;;2.95;1.65;;;;;;;21.23;23.23;100608.63;5108761;28;20664;-58
2022/01/22 03:09:10;;;;;;;2.45;1.55;;;;;;;21.23;23.11;100609.44;5098250;28;20551;-58
2022/01/22 03:11:46;;;;;;;2.38;1.50;;;;;;;21.24;23.23;100611.06;5090611;28;20077;-58
2022/01/22 03:14:50;;;;;;;3.20;2.00;;;;;;;21.21;23.21;100608.97;5111060;28;20511;-58
2022/01/22 03:20:00;;;;;;;2.70;1.60;;;;;;;21.11;23.26;100601.09;5089161;28;20055;-57
2022/01/22 03:22:42;;;;;;;3.15;1.95;;;;;;;21.08;23.11;100604.59;5091321;28;20048;-57
2022/01/22 03:27:52;;;;;;;3.67;2.08;;;;;;;21.01;23.37;100615.47;5090405;28;20095;-57
2022/01/22 03:30:18;;;;;;;3.20;1.98;;;;;;;20.98;23.33;100616.16;5091120;28;20083;-57
2022/01/22 03:32:48;;;;;;;3.30;1.92;;;;;;;20.95;23.17;100617.66;5090805;28;20047;-57
2022/01/22 03:37:42;;;;;;;3.40;2.15;;;;;;;20.91;23.25;100613.94;5090728;28;20048;-58
2022/01/22 03:40:10;;;;;;;3.33;2.13;;;;;;;20.89;23.40;100614.28;5090637;28;20127;-58
2022/01/22 03:42:35;;;;;;;3.78;2.45;;;;;;;20.86;23.42;100612.22;5090230;28;20104;-57
2022/01/22 03:45:07;;;;;;;3.50;2.30;;;;;;;20.86;23.45;100611.41;5090434;28;20052;-58
2022/01/22 03:47:32;;;;;;;3.10;2.03;;;;;;;20.85;23.37;100613.34;5090395;28;20071;-57
2022/01/22 03:49:58;;;;;;;3.13;1.90;;;;;;;20.83;23.25;100615.69;5089369;28;20086;-57
2022/01/22 03:52:23;;;;;;;3.22;2.10;;;;;;;20.82;23.44;100613.25;5090350;28;20047;-57
2022/01/22 03:54:49;;;;;;;3.45;2.38;;;;;;;20.80;23.31;100616.38;5090385;28;20040;-58
2022/01/22 03:57:15;;;;;;;3.72;2.30;;;;;;;20.79;23.47;100608.38;5089553;28;20445;-57
2022/01/22 03:59:40;;;;;;;3.40;2.20;;;;;;;20.78;23.53;100604.78;5090106;28;20156;-58
2022/01/22 04:04:54;;;;;;;2.88;1.90;;;;;;;20.76;23.41;100593.19;5089945;28;20546;-58
2022/01/22 04:10:07;;;;;;;3.88;2.38;;;;;;;20.74;23.43;100597.47;5089110;28;21084;-57
2022/01/22 04:12:58;;;;;;;3.20;1.98;;;;;;;20.73;23.51;100598.66;5089432;28;20135;-58
2022/01/22 04:15:25;;;;;;;3.03;1.95;;;;;;;20.71;23.44;100598.97;5089701;28;20048;-58
2022/01/22 04:28:48;;;;;;;2.80;1.65;;;;;;;20.68;23.43;100618.31;5037702;28;20078;-57
2022/01/22 04:31:14;;;;;;;2.80;1.60;;;;;;;20.67;23.21;100611.94;5089627;28;20048;-57
2022/01/22 04:33:39;;;;;;;3.25;2.00;;;;;;;20.66;23.62;100610.34;5089132;28;20145;-57
2022/01/22 04:36:05;;;;;;;3.08;1.98;;;;;;;20.66;23.48;100621.44;5089655;28;20043;-58
2022/01/22 04:38:31;;;;;;;2.78;1.60;;;;;;;20.67;23.43;100627.81;5089551;28;20048;-57
2022/01/22 04:40:56;;;;;;;2.35;1.52;;;;;;;20.65;23.46;100628.19;5088457;28;20036;-58
2022/01/22 04:43:22;;;;;;;2.70;1.60;;;;;;;20.65;23.26;100628.19;5089318;28;20066;-58
2022/01/22 04:48:52;;;;;;;2.67;1.60;;;;;;;20.64;23.28;100639.63;5088977;28;20518;-57
2022/01/22 04:56:47;;;;;;;2.63;1.58;;;;;;;20.60;23.39;100634.75;5089401;28;20051;-60
2022/01/22 04:59:14;;;;;;;2.38;1.63;;;;;;;20.59;23.56;100633.13;5089003;28;20048;-59
2022/01/22 05:01:39;;;;;;;2.30;1.50;;;;;;;20.59;23.36;100635.91;5088940;28;20587;-58
2022/01/22 05:04:05;;;;;;;2.33;1.38;;;;;;;20.58;23.44;100631.50;5089289;28;20040;-58
2022/01/22 05:06:30;;;;;;;2.22;1.40;;;;;;;20.58;23.39;100633.50;5089328;28;20048;-58
2022/01/22 05:08:57;;;;;;;3.00;1.80;;;;;;;20.57;23.38;100641.00;5089191;28;20051;-58
2022/01/22 05:11:24;;;;;;;2.40;1.40;;;;;;;20.57;23.35;100641.00;5088541;28;20085;-58
2022/01/22 05:13:50;;;;;;;2.55;1.50;;;;;;;20.56;23.45;100644.13;5089091;28;20460;-57
2022/01/22 05:16:15;;;;;;;2.20;1.50;;;;;;;20.56;23.32;100642.16;5089260;28;20617;-58
2022/01/22 05:18:51;;;;;;;2.25;1.33;;;;;;;20.54;23.42;100640.88;5088680;28;20086;-57
2022/01/22 05:21:17;;;;;;;2.47;1.50;;;;;;;20.56;23.34;100646.91;5088704;28;20115;-57
2022/01/22 05:23:44;;;;;;;2.50;1.42;;;;;;;20.56;23.42;100641.34;5088524;28;20040;-58
2022/01/22 05:26:28;;;;;;;2.60;1.40;;;;;;;20.56;23.50;100646.91;5088246;28;20036;-58
2022/01/22 05:37:04;;;;;;;2.30;1.42;;;;;;;20.51;23.41;100649.91;5129755;28;20069;-59
2022/01/22 05:39:31;;;;;;;2.15;1.35;;;;;;;20.53;23.45;100664.28;5129569;28;20388;-59
2022/01/22 05:41:58;;;;;;;2.35;1.30;;;;;;;20.55;23.45;100656.38;5129000;28;20095;-59
2022/01/22 05:44:24;;;;;;;2.67;1.63;;;;;;;20.60;23.29;100656.19;5129855;28;20039;-58
2022/01/22 05:46:52;;;;;;;2.22;1.23;;;;;;;20.65;23.36;100661.53;5129663;28;20092;-58
2022/01/22 05:49:20;;;;;;;2.30;1.30;;;;;;;20.68;23.34;100657.25;5129177;28;20055;-58
2022/01/22 05:51:47;;;;;;;2.10;1.20;;;;;;;20.73;23.24;100663.41;5129285;28;20055;-58
2022/01/22 05:59:40;;;;;;;1.83;1.10;;;;;;;20.73;23.37;100657.03;5130023;28;20120;-60
2022/01/22 06:02:12;;;;;;;2.03;1.13;;;;;;;20.70;23.40;100666.84;5129102;28;20043;-59
2022/01/22 06:04:38;;;;;;;1.48;1.00;;;;;;;20.69;23.21;100668.00;5129368;28;20039;-59
2022/01/22 06:07:05;;;;;;;2.33;1.40;;;;;;;20.68;23.16;100669.19;5129443;28;20051;-59
2022/01/22 06:09:33;;;;;;;1.88;1.20;;;;;;;20.67;23.26;100666.75;5129260;28;20043;-59
2022/01/22 06:14:34;;;;;;;2.65;1.50;;;;;;;20.65;23.38;100669.88;5129168;28;20517;-59
2022/01/22 06:16:59;;;;;;;2.55;1.48;;;;;;;20.63;23.34;100674.94;5128768;28;20043;-59
2022/01/22 06:19:25;;;;;;;3.30;1.30;;;;;;;20.61;23.28;100672.50;5129189;28;20047;-59
2022/01/22 06:21:51;;;;;;;2.85;1.63;;;;;;;20.61;23.29;100666.94;5128696;28;20039;-59
2022/01/22 06:24:17;;;;;;;2.22;1.30;;;;;;;20.60;23.47;100670.09;5129221;28;20088;-58
2022/01/22 06:26:43;;;;;;;2.25;1.40;;;;;;;20.60;23.53;100667.31;5129034;28;20055;-58
2022/01/22 06:29:08;;;;;;;2.08;1.30;;;;;;;20.61;23.39;100671.69;5128758;28;20043;-58
2022/01/22 06:31:35;;;;;;;2.08;1.40;;;;;;;20.57;23.35;100679.09;5128710;28;20035;-58
2022/01/22 06:34:00;;;;;;;2.40;1.50;;;;;;;20.57;23.32;100679.09;5129001;27;20047;-58
2022/01/22 06:36:27;;;;;;;2.30;1.40;;;;;;;20.57;23.45;100682.72;5132514;28;20048;-57
2022/01/22 06:38:59;;;;;;;2.85;1.67;;;;;;;20.56;23.48;100680.25;5132355;28;20074;-58
2022/01/22 06:44:14;;;;;;;2.30;1.52;;;;;;;20.57;23.44;100681.88;5132554;28;20058;-57
2022/01/22 06:46:41;;;;;;;2.00;1.33;;;;;;;20.54;23.36;100685.34;5132076;28;20046;-58
2022/01/22 06:49:06;;;;;;;2.42;1.50;;;;;;;20.54;23.30;100688.13;5132257;28;20509;-56
2022/01/22 06:51:33;;;;;;;2.30;1.40;;;;;;;20.53;23.49;100683.72;5132188;28;20627;-56
2022/01/22 06:53:59;;;;;;;2.28;1.58;;;;;;;20.52;23.38;100687.66;5131652;28;20130;-56
2022/01/22 06:56:25;;;;;;;2.92;1.70;;;;;;;20.52;23.15;100685.69;5132166;28;20126;-56
2022/01/22 06:58:51;;;;;;;2.55;1.52;;;;;;;20.52;23.18;100693.22;5132242;28;20075;-56
2022/01/22 07:01:16;;;;;;;3.20;1.55;;;;;;;20.51;23.47;100691.59;5131740;28;20477;-56
2022/01/22 07:03:42;;;;;;;2.38;1.50;;;;;;;20.50;23.19;100692.72;5131777;28;20141;-58
2022/01/22 07:06:07;;;;;;;2.28;1.38;;;;;;;20.50;23.22;100689.94;5132414;28;20055;-60
2022/01/22 07:08:33;;;;;;;2.30;1.42;;;;;;;20.49;23.23;100691.91;5132443;28;20043;-59
2022/01/22 07:10:59;;;;;;;2.42;1.50;;;;;;;20.46;23.28;100687.06;5130851;28;20166;-58
2022/01/22 07:13:24;;;;;;;2.03;1.40;;;;;;;20.49;23.41;100691.09;5131651;28;20046;-58
2022/01/22 07:15:50;;;;;;;3.15;1.73;;;;;;;20.48;23.50;100697.81;5131802;28;20051;-59
2022/01/22 07:18:15;;;;;;;2.45;1.63;;;;;;;20.47;23.39;100702.56;5131486;28;20448;-58
2022/01/22 07:20:43;;;;;;;2.20;1.30;;;;;;;20.48;23.41;100701.41;5131903;28;20043;-58
2022/01/22 07:25:53;;;;;;;2.55;1.52;;;;;;;20.47;23.42;100708.13;5131720;28;20046;-58
2022/01/22 07:28:18;;;;;;;2.50;1.50;;;;;;;20.45;23.25;100704.88;5131731;28;20039;-58
2022/01/22 07:30:46;;;;;;;2.72;1.70;;;;;;;20.45;23.25;100718.78;5131742;28;20115;-58
2022/01/22 07:33:12;;;;;;;2.70;1.88;;;;;;;20.44;23.42;100708.81;5130892;28;20130;-58
2022/01/22 07:35:38;;;;;;;3.03;1.67;;;;;;;20.42;23.47;100710.28;5131846;28;20100;-58
2022/01/22 07:38:04;;;;;;;2.42;1.67;;;;;;;20.44;23.30;100696.88;5131862;28;20035;-58
2022/01/22 07:40:30;;;;;;;2.63;1.73;;;;;;;20.47;23.29;100704.53;5131294;28;20043;-58
2022/01/22 07:42:55;;;;;;;2.58;1.80;;;;;;;20.52;23.37;100704.34;5131661;28;20535;-58
2022/01/22 07:45:21;;;;;;;2.70;1.80;;;;;;;20.57;23.38;100701.31;5131344;27;20051;-58
2022/01/22 07:47:46;;;;;;;2.45;1.55;;;;;;;20.60;23.31;100701.47;5131096;28;20043;-58
2022/01/22 07:50:12;;;;;;;2.75;1.75;;;;;;;20.62;23.37;100698.34;5131545;28;20139;-58
2022/01/22 07:52:37;;;;;;;3.03;1.73;;;;;;;20.62;23.34;100703.91;5131084;28;20044;-58
2022/01/22 07:55:04;;;;;;;2.55;1.60;;;;;;;20.61;23.28;100702.28;5130913;28;20403;-58
2022/01/22 07:57:29;;;;;;;2.97;1.70;;;;;;;20.60;23.25;100707.03;5131455;28;20043;-58
2022/01/22 07:59:55;;;;;;;2.40;1.45;;;;;;;20.59;23.17;100707.38;5131427;28;20039;-58
2022/01/22 08:02:20;;;;;;;2.83;1.60;;;;;;;20.60;23.33;100707.03;5130593;28;20051;-58
2022/01/22 08:04:45;;;;;;;2.63;1.63;;;;;;;20.60;23.38;100715.38;5131203;28;20054;-58
2022/01/22 08:07:11;;;;;;;2.65;1.70;;;;;;;20.59;23.22;100710.97;5131483;28;20047;-58
2022/01/22 08:09:36;;;;;;;2.70;1.70;;;;;;;20.59;23.28;100710.16;5130808;28;20043;-58
2022/01/22 08:12:02;;;;;;;3.20;2.00;;;;;;;20.58;23.37;100711.31;5131063;28;20043;-57
2022/01/22 08:14:28;;;;;;;2.83;1.80;;;;;;;20.57;23.36;100715.22;5130971;28;20088;-58
2022/01/22 08:16:53;;;;;;;2.17;1.55;;;;;;;20.55;23.32;100715.56;5130244;28;20031;-58
2022/01/22 08:19:19;;;;;;;3.22;1.70;;;;;;;20.56;23.54;100710.81;5130522;28;20071;-58
2022/01/22 08:21:46;;;;;;;3.00;1.67;;;;;;;20.55;23.32;100704.44;5130576;28;20058;-58
2022/01/22 08:24:13;;;;;;;3.58;1.80;;;;;;;20.53;23.39;100711.53;5129587;28;20046;-59
2022/01/22 08:26:45;;;;;;;3.03;2.10;;;;;;;20.54;23.28;100713.94;5130421;28;20069;-59
2022/01/22 08:29:11;;;;;;;3.53;1.95;;;;;;;20.55;23.31;100714.75;5130530;28;20551;-59
2022/01/22 08:36:47;;;;;;;3.67;2.28;;;;;;;20.52;23.46;100716.28;5130509;28;20042;-59
2022/01/22 08:39:15;;;;;;;3.28;2.10;;;;;;;20.52;23.56;100718.25;5129773;28;20054;-59
2022/01/22 08:41:41;;;;;;;3.42;2.33;;;;;;;20.51;23.51;100714.66;5130416;28;20384;-59
2022/01/22 08:44:07;;;;;;;3.65;2.33;;;;;;;20.52;23.56;100713.50;5130382;28;20055;-59
2022/01/22 08:46:34;;;;;;;3.15;2.25;;;;;;;20.53;23.47;100717.09;5130277;28;20136;-60
2022/01/22 08:49:00;;;;;;;3.40;2.22;;;;;;;20.53;23.37;100715.09;5130494;28;20045;-59
2022/01/22 08:51:26;;;;;;;3.28;2.22;;;;;;;20.54;23.51;100718.69;5130304;28;20947;-59
2022/01/22 08:53:52;;;;;;;3.08;2.00;;;;;;;20.54;23.46;100718.69;5129680;28;20062;-59
2022/01/22 08:56:18;;;;;;;3.25;2.20;;;;;;;20.53;23.46;100720.66;5129996;27;20131;-59
2022/01/22 08:58:44;;;;;;;3.33;2.25;;;;;;;20.52;23.64;100709.91;5129406;28;20492;-59
2022/01/22 09:01:11;;;;;;;3.08;2.10;;;;;;;20.55;23.61;100720.31;5129420;28;20567;-58
2022/01/22 09:03:37;;;;;;;3.05;2.10;;;;;;;20.52;23.55;100718.25;5129541;28;20086;-58
2022/01/22 09:06:06;;;;;;;3.30;2.30;;;;;;;20.53;23.54;100723.44;5129969;28;20080;-58
2022/01/22 09:08:31;;;;;;;3.17;2.08;;;;;;;20.51;23.48;100716.63;5129431;28;20043;-57
2022/01/22 09:10:57;;;;;;;3.05;2.10;;;;;;;20.56;23.58;100716.38;5129734;28;20438;-57
2022/01/22 09:13:24;;;;;;;3.00;2.10;;;;;;;20.59;23.57;100719.31;5129525;28;20055;-57
2022/01/22 09:15:53;;;;;;;2.90;2.13;;;;;;;20.64;23.59;100721.03;5129317;28;20035;-57
2022/01/22 09:18:18;;;;;;;2.85;1.85;;;;;;;20.68;23.45;100719.22;5129839;28;20039;-58
2022/01/22 09:21:01;;;;;;;3.55;2.22;;;;;;;20.77;23.57;100727.47;5129512;28;20062;-58
2022/01/22 09:23:26;;;;;;;3.50;2.03;;;;;;;20.79;23.44;100720.44;5128904;28;20042;-58
2022/01/22 09:25:52;;;;;;;3.65;2.10;;;;;;;20.77;23.42;100717.16;5129667;28;20047;-58
2022/01/22 09:28:17;;;;;;;2.80;1.85;;;;;;;20.75;23.59;100716.69;5129542;28;20039;-58
2022/01/22 09:30:43;;;;;;;3.50;2.30;;;;;;;20.77;23.40;100719.94;5128965;28;20096;-58
2022/01/22 09:33:09;;;;;;;3.53;2.05;;;;;;;20.77;23.37;100713.56;5129564;28;20039;-58
2022/01/22 09:35:35;;;;;;;3.15;2.20;;;;;;;20.75;23.42;100713.91;5129574;28;20050;-58
2022/01/22 09:38:01;;;;;;;4.03;2.75;;;;;;;20.74;23.36;100712.28;5129266;28;20414;-58
2022/01/22 09:40:28;;;;;;;4.57;2.72;;;;;;;20.73;23.35;100709.84;5129759;28;20088;-58
2022/01/22 09:42:55;;;;;;;4.15;2.75;;;;;;;20.74;23.45;100717.84;5128080;28;20039;-58
2022/01/22 09:45:22;;;;;;;4.10;2.63;;;;;;;20.72;23.41;100720.19;5128782;28;20446;-58
2022/01/22 09:47:48;;;;;;;4.22;2.90;;;;;;;20.73;23.42;100721.78;5129622;28;20487;-58
2022/01/22 09:50:20;;;;;;;4.03;2.60;;;;;;;20.72;23.38;100720.19;5128774;28;20047;-58
2022/01/22 09:52:46;;;;;;;3.80;2.72;;;;;;;20.71;23.25;100724.09;5128696;28;20089;-58
2022/01/22 09:55:12;;;;;;;3.97;2.47;;;;;;;20.72;23.35;100739.63;5128975;28;20124;-58
2022/01/22 09:57:38;;;;;;;4.20;2.42;;;;;;;20.72;23.31;100733.25;5129371;28;20043;-58
2022/01/22 10:00:07;;;;;;;4.00;2.60;;;;;;;20.72;23.56;100724.91;5128885;28;20070;-58
2022/01/22 10:02:46;;;;;;;4.10;2.60;;;;;;;20.71;23.23;100728.84;5129374;28;20110;-58
2022/01/22 10:05:31;;;;;;;3.53;2.40;;;;;;;20.70;23.49;100730.00;5129225;28;20031;-58
2022/01/22 10:08:18;;;;;;;3.95;2.50;;;;;;;20.74;23.26;100726.19;5129074;27;20079;-58
2022/01/22 10:10:44;;;;;;;3.58;2.40;;;;;;;20.79;23.39;100727.97;5132825;28;20086;-58
2022/01/22 10:13:09;;;;;;;3.45;2.35;;;;;;;20.88;23.23;100728.66;5132898;28;20079;-58
2022/01/22 10:15:35;;;;;;;3.63;2.42;;;;;;;20.96;23.29;100729.75;5131841;28;20749;-59
2022/01/22 10:18:02;;;;;;;3.60;2.30;;;;;;;21.05;23.05;100728.47;5132940;28;20081;-59
2022/01/22 10:20:37;;;;;;;3.50;2.30;;;;;;;21.13;22.82;100729.53;5132800;28;20076;-59
2022/01/22 10:23:05;;;;;;;3.55;2.28;;;;;;;21.20;23.07;100729.78;5132077;28;20050;-59
2022/01/22 10:25:38;;;;;;;3.40;2.13;;;;;;;21.29;22.88;100730.53;5132544;28;20043;-58
2022/01/22 10:28:19;;;;;;;2.97;1.95;;;;;;;21.33;23.07;100730.63;5132612;28;20066;-58
2022/01/22 10:30:46;;;;;;;2.83;1.90;;;;;;;21.36;23.08;100732.72;5132020;28;20054;-58
2022/01/22 10:35:45;;;;;;;3.00;1.83;;;;;;;21.34;22.82;100729.47;5130588;28;20464;-58
2022/01/22 10:38:11;;;;;;;3.22;2.10;;;;;;;21.29;22.83;100724.97;5131934;28;20031;-59
2022/01/22 10:40:39;;;;;;;3.05;1.90;;;;;;;21.26;23.00;100716.44;5132033;28;20050;-58
2022/01/22 10:43:34;;;;;;;2.88;1.90;;;;;;;21.23;22.77;100717.97;5132424;28;20043;-58
2022/01/22 10:47:02;;;;;;;3.25;2.00;;;;;;;21.20;22.98;100717.84;5132039;28;20541;-58
2022/01/22 10:49:01;;;;;;;2.95;1.85;;;;;;;21.18;22.97;100715.41;5121549;28;20511;-59
2022/01/22 10:51:29;;;;;;;2.63;1.80;;;;;;;21.16;22.79;100712.16;5131814;28;20057;-59
2022/01/22 10:54:02;;;;;;;2.35;1.60;;;;;;;21.13;23.07;100710.88;5132444;28;20049;-59
2022/01/22 10:56:30;;;;;;;2.83;1.90;;;;;;;21.10;23.07;100696.84;5131099;28;20067;-58
2022/01/22 10:58:57;;;;;;;3.25;1.70;;;;;;;21.11;22.73;100701.25;5131878;28;20495;-59
2022/01/22 11:01:45;;;;;;;2.47;1.42;;;;;;;21.10;22.89;100699.63;5132408;28;20054;-57
2022/01/22 11:04:28;;;;;;;3.40;1.90;;;;;;;21.08;22.66;100701.94;5131079;28;20054;-57
2022/01/22 11:07:04;;;;;;;3.10;1.98;;;;;;;21.08;22.66;100699.16;5131474;28;20043;-57
2022/01/22 11:09:31;;;;;;;3.05;2.00;;;;;;;21.07;22.70;100700.31;5131975;28;20035;-57
2022/01/22 11:11:58;;;;;;;3.17;1.75;;;;;;;21.06;22.67;100682.00;5131952;28;20215;-58
2022/01/22 11:14:23;;;;;;;2.95;1.88;;;;;;;21.05;22.76;100686.75;5131200;28;20039;-58
2022/01/22 11:16:52;;;;;;;2.65;1.63;;;;;;;21.05;22.74;100688.72;5131902;28;20122;-58
2022/01/22 11:19:20;;;;;;;2.95;1.90;;;;;;;21.05;22.95;100681.19;5131990;27;20107;-57
2022/01/22 11:21:49;;;;;;;3.03;1.73;;;;;;;21.05;22.96;100670.06;5130958;27;20043;-58
2022/01/22 11:24:21;;;;;;;2.70;1.70;;;;;;;21.04;22.91;100667.63;5131427;27;20043;-58
2022/01/22 11:26:55;;;;;;;2.60;1.60;;;;;;;21.03;22.75;100668.78;5131163;28;20043;-58
2022/01/22 11:29:44;;;;;;;2.58;1.52;;;;;;;21.06;23.09;100670.88;5130747;27;20086;-58
2022/01/22 11:32:12;;;;;;;2.58;1.67;;;;;;;21.06;22.62;100665.31;5115941;27;20055;-58
2022/01/22 11:34:40;;;;;;;2.63;1.70;;;;;;;21.05;22.92;100666.47;5131177;28;20414;-59
2022/01/22 11:37:43;;;;;;;3.03;1.70;;;;;;;21.05;22.87;100660.91;5130753;28;20116;-58
2022/01/22 11:40:20;;;;;;;2.88;1.83;;;;;;;21.04;22.85;100653.72;5122242;28;20073;-59
2022/01/22 11:45:36;;;;;;;2.45;1.50;;;;;;;21.04;22.74;100648.16;5130980;27;20400;-57
2022/01/22 11:48:11;;;;;;;2.60;1.50;;;;;;;21.03;22.96;100652.91;5131313;28;20043;-56
2022/01/22 11:50:38;;;;;;;2.53;1.48;;;;;;;21.04;22.89;100648.97;5130651;28;20043;-56
2022/01/22 11:53:32;;;;;;;2.33;1.50;;;;;;;21.02;22.84;100651.28;5131246;28;20077;-56
2022/01/22 11:56:10;;;;;;;2.63;1.63;;;;;;;21.02;22.80;100648.50;5131118;28;20058;-56
2022/01/22 11:59:01;;;;;;;2.55;1.58;;;;;;;21.03;22.85;100640.97;5130922;28;20039;-57
2022/01/22 12:01:51;;;;;;;2.70;1.55;;;;;;;21.01;22.94;100637.72;5131179;28;20050;-58
2022/01/22 12:04:25;;;;;;;2.72;1.60;;;;;;;21.01;22.93;100629.38;5131039;27;20411;-58
2022/01/22 12:07:15;;;;;;;2.53;1.45;;;;;;;21.00;22.90;100625.75;5130364;27;20525;-59
2022/01/22 12:15:34;;;;;;;1.95;1.33;;;;;;;21.02;22.72;100622.66;5131052;28;20089;-59
2022/01/22 12:18:14;;;;;;;2.30;1.60;;;;;;;21.01;22.62;100619.06;5131029;28;20427;-59
2022/01/22 12:23:28;;;;;;;2.67;1.40;;;;;;;21.01;22.88;100610.72;5124713;28;20051;-58
2022/01/22 12:25:54;;;;;;;2.20;1.30;;;;;;;21.02;22.90;100605.97;5131198;28;20091;-58
2022/01/22 12:28:33;;;;;;;2.53;1.40;;;;;;;21.01;22.84;100607.94;5130880;28;20043;-58
2022/01/22 12:31:06;;;;;;;2.28;1.35;;;;;;;21.01;22.82;100599.59;5128642;27;20051;-58
2022/01/22 12:33:43;;;;;;;1.85;1.17;;;;;;;21.02;22.92;100594.84;5128642;28;20047;-58
2022/01/22 12:36:18;;;;;;;2.15;1.30;;;;;;;21.01;22.89;100587.66;5129800;28;20055;-59
2022/01/22 12:38:57;;;;;;;2.05;1.33;;;;;;;21.01;22.95;100594.03;5130746;28;20045;-58
2022/01/22 12:44:28;;;;;;;2.20;1.30;;;;;;;21.01;22.87;100576.53;5130259;28;20053;-58
2022/01/22 12:46:56;;;;;;;2.20;1.40;;;;;;;21.01;22.71;100580.13;5129738;27;20043;-58
2022/01/22 12:49:24;;;;;;;2.00;1.20;;;;;;;21.02;22.86;100581.75;5122011;28;20487;-58
2022/01/22 12:51:59;;;;;;;2.00;1.30;;;;;;;21.01;22.70;100574.56;5123332;28;20039;-57
2022/01/22 12:54:31;;;;;;;2.45;1.33;;;;;;;21.07;23.84;100575.94;5130013;28;20139;-58
2022/01/22 12:57:28;;;;;;;2.03;1.33;;;;;;;21.15;24.25;100571.44;5128039;28;20055;-58
2022/01/22 13:00:08;;;;;;;2.08;1.20;;;;;;;21.22;24.15;100577.22;5082417;28;20049;-57
2022/01/22 13:02:49;;;;;;;2.50;1.52;;;;;;;21.23;24.81;100578.84;5107502;28;20097;-57
2022/01/22 13:05:17;;;;;;;4.03;1.42;;;;;;;21.27;24.63;100571.41;5119324;28;20050;-58
2022/01/22 13:07:51;;;;;;;2.20;1.30;;;;;;;21.36;24.70;100577.69;5105936;28;20450;-57
2022/01/22 13:10:16;;;;;;;2.35;1.20;;;;;;;21.39;25.07;100568.63;5108873;28;20051;-58
2022/01/22 13:12:44;;;;;;;1.88;1.20;;;;;;;21.46;25.32;100570.03;5126583;28;20054;-60
2022/01/22 13:15:11;;;;;;;4.72;1.40;;;;;;;21.57;25.18;100565.56;5124764;27;20384;-65
2022/01/22 13:17:37;;;;;;;1.80;1.10;;;;;;;21.72;25.90;100573.22;5121506;27;20035;-71
2022/01/22 13:20:05;;;;;;;3.58;1.40;;;;;;;21.87;26.12;100574.44;5129473;28;20087;-60